sensor_id;sensor_type;location;lat;lon;timestamp;temperature;humidity
23073;DHT22;67971;51.046;3.732;2023-04-06T00:01:01;11.60;88.50
23073;DHT22;67971;51.046;3.732;2023-04-06T00:03:27;11.50;88.70
23073;DHT22;67971;51.046;3.732;2023-04-06T00:05:52;11.50;88.10
23073;DHT22;67971;51.046;3.732;2023-04-06T00:08:18;11.40;88.90
23073;DHT22;67971;51.046;3.732;2023-04-06T00:10:46;11.40;89.00
23073;DHT22;67971;51.046;3.732;2023-04-06T00:13:12;11.30;89.50
23073;DHT22;67971;51.046;3.732;2023-04-06T00:15:38;11.40;90.00
23073;DHT22;67971;51.046;3.732;2023-04-06T00:18:03;11.40;90.10
23073;DHT22;67971;51.046;3.732;2023-04-06T00:20:29;11.40;90.10
23073;DHT22;67971;51.046;3.732;2023-04-06T00:22:55;11.40;90.20
23073;DHT22;67971;51.046;3.732;2023-04-06T00:25:21;11.50;90.00
23073;DHT22;67971;51.046;3.732;2023-04-06T00:27:46;11.50;90.30
23073;DHT22;67971;51.046;3.732;2023-04-06T00:30:12;11.50;90.50
23073;DHT22;67971;51.046;3.732;2023-04-06T00:32:38;11.40;90.50
23073;DHT22;67971;51.046;3.732;2023-04-06T00:35:04;11.40;90.90
23073;DHT22;67971;51.046;3.732;2023-04-06T00:37:30;11.40;91.10
23073;DHT22;67971;51.046;3.732;2023-04-06T00:39:56;11.40;91.10
23073;DHT22;67971;51.046;3.732;2023-04-06T00:42:23;11.50;91.00
23073;DHT22;67971;51.046;3.732;2023-04-06T00:44:53;11.50;91.10
23073;DHT22;67971;51.046;3.732;2023-04-06T00:47:20;11.40;91.40
23073;DHT22;67971;51.046;3.732;2023-04-06T00:49:46;11.30;91.50
23073;DHT22;67971;51.046;3.732;2023-04-06T00:52:12;11.30;91.60
23073;DHT22;67971;51.046;3.732;2023-04-06T00:54:38;11.40;91.60
23073;DHT22;67971;51.046;3.732;2023-04-06T00:57:03;11.40;91.70
23073;DHT22;67971;51.046;3.732;2023-04-06T00:59:29;11.40;92.00
23073;DHT22;67971;51.046;3.732;2023-04-06T01:01:55;11.50;91.90
23073;DHT22;67971;51.046;3.732;2023-04-06T01:04:21;11.60;91.90
23073;DHT22;67971;51.046;3.732;2023-04-06T01:06:50;11.60;92.00
23073;DHT22;67971;51.046;3.732;2023-04-06T01:09:19;11.60;92.10
23073;DHT22;67971;51.046;3.732;2023-04-06T01:11:45;11.60;92.20
23073;DHT22;67971;51.046;3.732;2023-04-06T01:14:11;11.60;92.60
23073;DHT22;67971;51.046;3.732;2023-04-06T01:16:37;11.40;92.80
23073;DHT22;67971;51.046;3.732;2023-04-06T01:19:09;11.30;93.20
23073;DHT22;67971;51.046;3.732;2023-04-06T01:21:40;11.30;93.30
23073;DHT22;67971;51.046;3.732;2023-04-06T01:24:07;11.30;93.40
23073;DHT22;67971;51.046;3.732;2023-04-06T01:26:33;11.30;93.60
23073;DHT22;67971;51.046;3.732;2023-04-06T01:28:59;11.30;93.70
23073;DHT22;67971;51.046;3.732;2023-04-06T01:31:25;11.30;93.90
23073;DHT22;67971;51.046;3.732;2023-04-06T01:33:52;11.30;93.90
23073;DHT22;67971;51.046;3.732;2023-04-06T01:36:17;11.40;93.70
23073;DHT22;67971;51.046;3.732;2023-04-06T01:38:43;11.40;93.90
23073;DHT22;67971;51.046;3.732;2023-04-06T01:41:09;11.40;93.70
23073;DHT22;67971;51.046;3.732;2023-04-06T01:43:35;11.50;94.00
23073;DHT22;67971;51.046;3.732;2023-04-06T01:46:01;11.40;94.10
23073;DHT22;67971;51.046;3.732;2023-04-06T01:48:27;11.40;94.50
23073;DHT22;67971;51.046;3.732;2023-04-06T01:50:53;11.40;94.40
23073;DHT22;67971;51.046;3.732;2023-04-06T01:53:19;11.50;94.50
23073;DHT22;67971;51.046;3.732;2023-04-06T01:55:45;11.60;94.80
23073;DHT22;67971;51.046;3.732;2023-04-06T01:58:11;11.60;94.70
23073;DHT22;67971;51.046;3.732;2023-04-06T02:00:37;11.60;94.70
23073;DHT22;67971;51.046;3.732;2023-04-06T02:03:03;11.60;94.80
23073;DHT22;67971;51.046;3.732;2023-04-06T02:05:30;11.50;95.10
23073;DHT22;67971;51.046;3.732;2023-04-06T02:07:56;11.50;95.20
23073;DHT22;67971;51.046;3.732;2023-04-06T02:10:22;11.50;95.60
23073;DHT22;67971;51.046;3.732;2023-04-06T02:12:49;11.60;95.60
23073;DHT22;67971;51.046;3.732;2023-04-06T02:15:15;11.60;95.50
23073;DHT22;67971;51.046;3.732;2023-04-06T02:17:41;11.70;95.70
23073;DHT22;67971;51.046;3.732;2023-04-06T02:20:07;11.50;95.50
23073;DHT22;67971;51.046;3.732;2023-04-06T02:22:35;11.50;95.80
23073;DHT22;67971;51.046;3.732;2023-04-06T02:25:00;11.60;96.00
23073;DHT22;67971;51.046;3.732;2023-04-06T02:27:27;11.70;95.70
23073;DHT22;67971;51.046;3.732;2023-04-06T02:29:52;11.50;96.10
23073;DHT22;67971;51.046;3.732;2023-04-06T02:32:18;11.50;96.20
23073;DHT22;67971;51.046;3.732;2023-04-06T02:34:44;11.50;96.40
23073;DHT22;67971;51.046;3.732;2023-04-06T02:37:10;11.50;96.80
23073;DHT22;67971;51.046;3.732;2023-04-06T02:39:35;11.60;96.70
23073;DHT22;67971;51.046;3.732;2023-04-06T02:42:01;11.50;96.90
23073;DHT22;67971;51.046;3.732;2023-04-06T02:44:27;11.50;97.40
23073;DHT22;67971;51.046;3.732;2023-04-06T02:46:52;11.40;97.60
23073;DHT22;67971;51.046;3.732;2023-04-06T02:49:18;11.40;97.90
23073;DHT22;67971;51.046;3.732;2023-04-06T02:51:44;11.40;98.10
23073;DHT22;67971;51.046;3.732;2023-04-06T02:54:10;11.30;98.70
23073;DHT22;67971;51.046;3.732;2023-04-06T02:56:35;11.20;99.00
23073;DHT22;67971;51.046;3.732;2023-04-06T02:59:01;11.20;99.50
23073;DHT22;67971;51.046;3.732;2023-04-06T03:01:27;11.30;99.50
23073;DHT22;67971;51.046;3.732;2023-04-06T03:03:52;11.30;99.60
23073;DHT22;67971;51.046;3.732;2023-04-06T03:06:18;11.20;99.90
23073;DHT22;67971;51.046;3.732;2023-04-06T03:08:44;11.30;99.90
23073;DHT22;67971;51.046;3.732;2023-04-06T03:11:09;11.40;99.90
23073;DHT22;67971;51.046;3.732;2023-04-06T03:13:36;11.30;99.90
23073;DHT22;67971;51.046;3.732;2023-04-06T03:16:04;11.10;99.90
23073;DHT22;67971;51.046;3.732;2023-04-06T03:18:31;11.10;99.90
23073;DHT22;67971;51.046;3.732;2023-04-06T03:20:56;10.90;99.90
23073;DHT22;67971;51.046;3.732;2023-04-06T03:23:22;10.90;99.90
23073;DHT22;67971;51.046;3.732;2023-04-06T03:25:48;10.90;99.90
23073;DHT22;67971;51.046;3.732;2023-04-06T03:28:14;10.90;99.90
23073;DHT22;67971;51.046;3.732;2023-04-06T03:30:41;10.80;99.90
23073;DHT22;67971;51.046;3.732;2023-04-06T03:33:07;10.80;99.90
23073;DHT22;67971;51.046;3.732;2023-04-06T03:35:32;10.70;99.90
23073;DHT22;67971;51.046;3.732;2023-04-06T03:37:58;10.50;99.90
23073;DHT22;67971;51.046;3.732;2023-04-06T03:40:24;10.60;99.90
23073;DHT22;67971;51.046;3.732;2023-04-06T03:42:50;10.60;99.90
23073;DHT22;67971;51.046;3.732;2023-04-06T03:45:16;10.50;99.90
23073;DHT22;67971;51.046;3.732;2023-04-06T03:47:42;10.60;99.90
23073;DHT22;67971;51.046;3.732;2023-04-06T03:50:08;10.60;99.90
23073;DHT22;67971;51.046;3.732;2023-04-06T03:52:34;10.60;99.90
23073;DHT22;67971;51.046;3.732;2023-04-06T03:55:00;10.50;99.90
23073;DHT22;67971;51.046;3.732;2023-04-06T03:57:26;10.50;99.90
23073;DHT22;67971;51.046;3.732;2023-04-06T03:59:51;10.60;99.90
23073;DHT22;67971;51.046;3.732;2023-04-06T04:02:17;10.50;99.90
23073;DHT22;67971;51.046;3.732;2023-04-06T04:04:43;10.50;99.90
23073;DHT22;67971;51.046;3.732;2023-04-06T04:07:08;10.60;99.90
23073;DHT22;67971;51.046;3.732;2023-04-06T04:09:34;10.50;99.90
23073;DHT22;67971;51.046;3.732;2023-04-06T04:11:59;10.40;99.90
23073;DHT22;67971;51.046;3.732;2023-04-06T04:14:25;10.40;99.90
23073;DHT22;67971;51.046;3.732;2023-04-06T04:16:51;10.50;99.90
23073;DHT22;67971;51.046;3.732;2023-04-06T04:19:17;10.40;99.90
23073;DHT22;67971;51.046;3.732;2023-04-06T04:21:44;10.40;99.90
23073;DHT22;67971;51.046;3.732;2023-04-06T04:24:10;10.50;99.90
23073;DHT22;67971;51.046;3.732;2023-04-06T04:26:36;10.60;99.90
23073;DHT22;67971;51.046;3.732;2023-04-06T04:29:01;10.60;99.90
23073;DHT22;67971;51.046;3.732;2023-04-06T04:31:27;10.60;99.90
23073;DHT22;67971;51.046;3.732;2023-04-06T04:33:53;10.80;99.90
23073;DHT22;67971;51.046;3.732;2023-04-06T04:36:18;10.70;99.90
23073;DHT22;67971;51.046;3.732;2023-04-06T04:38:44;10.70;99.90
23073;DHT22;67971;51.046;3.732;2023-04-06T04:41:10;10.50;99.90
23073;DHT22;67971;51.046;3.732;2023-04-06T04:43:36;10.50;99.90
23073;DHT22;67971;51.046;3.732;2023-04-06T04:46:01;10.50;99.90
23073;DHT22;67971;51.046;3.732;2023-04-06T04:48:29;10.30;99.90
23073;DHT22;67971;51.046;3.732;2023-04-06T04:50:54;10.30;99.90
23073;DHT22;67971;51.046;3.732;2023-04-06T04:53:20;10.30;99.90
23073;DHT22;67971;51.046;3.732;2023-04-06T04:55:46;10.30;99.90
23073;DHT22;67971;51.046;3.732;2023-04-06T04:58:12;10.40;99.90
23073;DHT22;67971;51.046;3.732;2023-04-06T05:00:42;10.50;99.90
23073;DHT22;67971;51.046;3.732;2023-04-06T05:03:08;10.60;99.90
23073;DHT22;67971;51.046;3.732;2023-04-06T05:05:34;10.50;99.90
23073;DHT22;67971;51.046;3.732;2023-04-06T05:08:01;10.30;99.90
23073;DHT22;67971;51.046;3.732;2023-04-06T05:10:27;10.20;99.90
23073;DHT22;67971;51.046;3.732;2023-04-06T05:12:52;10.10;99.90
23073;DHT22;67971;51.046;3.732;2023-04-06T05:15:18;10.10;99.90
23073;DHT22;67971;51.046;3.732;2023-04-06T05:17:44;10.10;99.90
23073;DHT22;67971;51.046;3.732;2023-04-06T05:20:10;10.20;99.90
23073;DHT22;67971;51.046;3.732;2023-04-06T05:22:36;9.90;99.90
23073;DHT22;67971;51.046;3.732;2023-04-06T05:25:02;9.90;99.90
23073;DHT22;67971;51.046;3.732;2023-04-06T05:27:28;9.80;99.90
23073;DHT22;67971;51.046;3.732;2023-04-06T05:29:54;9.90;99.90
23073;DHT22;67971;51.046;3.732;2023-04-06T05:32:20;9.90;99.90
23073;DHT22;67971;51.046;3.732;2023-04-06T05:34:50;10.00;99.90
23073;DHT22;67971;51.046;3.732;2023-04-06T05:37:16;10.00;99.90
23073;DHT22;67971;51.046;3.732;2023-04-06T05:39:42;10.00;99.90
23073;DHT22;67971;51.046;3.732;2023-04-06T05:42:07;9.90;99.90
23073;DHT22;67971;51.046;3.732;2023-04-06T05:44:33;9.90;99.90
23073;DHT22;67971;51.046;3.732;2023-04-06T05:46:59;9.90;99.90
23073;DHT22;67971;51.046;3.732;2023-04-06T05:49:24;9.80;99.90
23073;DHT22;67971;51.046;3.732;2023-04-06T05:51:50;9.80;99.90
23073;DHT22;67971;51.046;3.732;2023-04-06T05:54:16;9.60;99.90
23073;DHT22;67971;51.046;3.732;2023-04-06T05:56:42;9.60;99.90
23073;DHT22;67971;51.046;3.732;2023-04-06T05:59:07;9.50;99.90
23073;DHT22;67971;51.046;3.732;2023-04-06T06:01:33;9.40;99.90
23073;DHT22;67971;51.046;3.732;2023-04-06T06:04:01;9.30;99.90
23073;DHT22;67971;51.046;3.732;2023-04-06T06:06:28;9.20;99.90
23073;DHT22;67971;51.046;3.732;2023-04-06T06:08:56;9.10;99.90
23073;DHT22;67971;51.046;3.732;2023-04-06T06:11:26;9.10;99.90
23073;DHT22;67971;51.046;3.732;2023-04-06T06:13:52;9.10;99.90
23073;DHT22;67971;51.046;3.732;2023-04-06T06:16:18;9.00;99.90
23073;DHT22;67971;51.046;3.732;2023-04-06T06:18:44;9.00;99.90
23073;DHT22;67971;51.046;3.732;2023-04-06T06:21:10;9.00;99.90
23073;DHT22;67971;51.046;3.732;2023-04-06T06:23:38;9.00;99.90
23073;DHT22;67971;51.046;3.732;2023-04-06T06:26:04;8.80;99.90
23073;DHT22;67971;51.046;3.732;2023-04-06T06:28:30;8.80;99.90
23073;DHT22;67971;51.046;3.732;2023-04-06T06:30:56;8.70;99.90
23073;DHT22;67971;51.046;3.732;2023-04-06T06:33:21;8.60;99.90
23073;DHT22;67971;51.046;3.732;2023-04-06T06:35:47;8.70;99.90
23073;DHT22;67971;51.046;3.732;2023-04-06T06:38:13;8.70;99.90
23073;DHT22;67971;51.046;3.732;2023-04-06T06:40:40;8.70;99.90
23073;DHT22;67971;51.046;3.732;2023-04-06T06:43:05;8.60;99.90
23073;DHT22;67971;51.046;3.732;2023-04-06T06:45:33;8.70;99.90
23073;DHT22;67971;51.046;3.732;2023-04-06T06:47:58;8.70;99.90
23073;DHT22;67971;51.046;3.732;2023-04-06T06:50:24;8.60;99.90
23073;DHT22;67971;51.046;3.732;2023-04-06T06:52:50;8.60;99.90
23073;DHT22;67971;51.046;3.732;2023-04-06T06:55:16;8.60;99.90
23073;DHT22;67971;51.046;3.732;2023-04-06T06:57:44;8.60;99.90
23073;DHT22;67971;51.046;3.732;2023-04-06T07:00:12;8.70;99.90
23073;DHT22;67971;51.046;3.732;2023-04-06T07:02:38;8.80;99.90
23073;DHT22;67971;51.046;3.732;2023-04-06T07:05:04;8.80;99.90
23073;DHT22;67971;51.046;3.732;2023-04-06T07:07:32;8.90;99.90
23073;DHT22;67971;51.046;3.732;2023-04-06T07:09:57;8.80;99.90
23073;DHT22;67971;51.046;3.732;2023-04-06T07:12:23;8.90;99.90
23073;DHT22;67971;51.046;3.732;2023-04-06T07:14:49;8.90;99.90
23073;DHT22;67971;51.046;3.732;2023-04-06T07:17:14;9.00;99.90
23073;DHT22;67971;51.046;3.732;2023-04-06T07:19:40;9.00;99.90
23073;DHT22;67971;51.046;3.732;2023-04-06T07:22:06;9.10;99.90
23073;DHT22;67971;51.046;3.732;2023-04-06T07:24:32;9.00;99.90
23073;DHT22;67971;51.046;3.732;2023-04-06T07:26:58;8.90;99.90
23073;DHT22;67971;51.046;3.732;2023-04-06T07:29:26;8.90;99.90
23073;DHT22;67971;51.046;3.732;2023-04-06T07:31:52;9.00;99.90
23073;DHT22;67971;51.046;3.732;2023-04-06T07:34:18;9.00;99.90
23073;DHT22;67971;51.046;3.732;2023-04-06T07:36:44;9.00;99.90
23073;DHT22;67971;51.046;3.732;2023-04-06T07:39:10;8.90;99.90
23073;DHT22;67971;51.046;3.732;2023-04-06T07:41:36;8.80;99.90
23073;DHT22;67971;51.046;3.732;2023-04-06T07:44:06;8.70;99.90
23073;DHT22;67971;51.046;3.732;2023-04-06T07:46:34;8.70;99.90
23073;DHT22;67971;51.046;3.732;2023-04-06T07:49:01;8.60;99.90
23073;DHT22;67971;51.046;3.732;2023-04-06T07:51:27;8.70;99.90
23073;DHT22;67971;51.046;3.732;2023-04-06T07:53:53;8.70;99.90
23073;DHT22;67971;51.046;3.732;2023-04-06T07:56:19;8.70;99.90
23073;DHT22;67971;51.046;3.732;2023-04-06T07:58:46;8.70;99.90
23073;DHT22;67971;51.046;3.732;2023-04-06T08:01:14;8.70;99.90
23073;DHT22;67971;51.046;3.732;2023-04-06T08:03:48;8.60;99.90
23073;DHT22;67971;51.046;3.732;2023-04-06T08:06:15;8.60;99.90
23073;DHT22;67971;51.046;3.732;2023-04-06T08:08:41;8.50;99.90
23073;DHT22;67971;51.046;3.732;2023-04-06T08:11:16;8.50;99.90
23073;DHT22;67971;51.046;3.732;2023-04-06T08:13:47;8.60;99.90
23073;DHT22;67971;51.046;3.732;2023-04-06T08:16:13;8.50;99.90
23073;DHT22;67971;51.046;3.732;2023-04-06T08:18:41;8.60;99.90
23073;DHT22;67971;51.046;3.732;2023-04-06T08:21:13;8.60;99.90
23073;DHT22;67971;51.046;3.732;2023-04-06T08:23:38;8.70;99.90
23073;DHT22;67971;51.046;3.732;2023-04-06T08:26:04;8.70;99.90
23073;DHT22;67971;51.046;3.732;2023-04-06T08:28:30;8.70;99.90
23073;DHT22;67971;51.046;3.732;2023-04-06T08:30:56;8.70;99.90
23073;DHT22;67971;51.046;3.732;2023-04-06T08:33:22;8.70;99.90
23073;DHT22;67971;51.046;3.732;2023-04-06T08:35:47;8.70;99.90
23073;DHT22;67971;51.046;3.732;2023-04-06T08:38:13;8.70;99.90
23073;DHT22;67971;51.046;3.732;2023-04-06T08:40:39;8.80;99.90
23073;DHT22;67971;51.046;3.732;2023-04-06T08:43:13;8.70;99.90
23073;DHT22;67971;51.046;3.732;2023-04-06T08:45:45;8.60;99.90
23073;DHT22;67971;51.046;3.732;2023-04-06T08:48:13;8.60;99.90
23073;DHT22;67971;51.046;3.732;2023-04-06T08:50:45;8.70;99.90
23073;DHT22;67971;51.046;3.732;2023-04-06T08:53:12;8.70;99.90
23073;DHT22;67971;51.046;3.732;2023-04-06T08:55:45;8.60;99.90
23073;DHT22;67971;51.046;3.732;2023-04-06T08:58:14;8.60;99.90
23073;DHT22;67971;51.046;3.732;2023-04-06T09:00:43;8.60;99.90
23073;DHT22;67971;51.046;3.732;2023-04-06T09:03:15;8.60;99.90
23073;DHT22;67971;51.046;3.732;2023-04-06T09:05:45;8.70;99.90
23073;DHT22;67971;51.046;3.732;2023-04-06T09:08:12;8.60;99.90
23073;DHT22;67971;51.046;3.732;2023-04-06T09:10:40;8.70;99.90
23073;DHT22;67971;51.046;3.732;2023-04-06T09:13:07;8.70;99.90
23073;DHT22;67971;51.046;3.732;2023-04-06T09:15:33;8.70;99.90
23073;DHT22;67971;51.046;3.732;2023-04-06T09:18:05;8.70;99.90
23073;DHT22;67971;51.046;3.732;2023-04-06T09:20:31;8.80;99.90
23073;DHT22;67971;51.046;3.732;2023-04-06T09:22:56;8.80;99.90
23073;DHT22;67971;51.046;3.732;2023-04-06T09:25:24;8.80;99.90
23073;DHT22;67971;51.046;3.732;2023-04-06T09:27:59;8.90;99.90
23073;DHT22;67971;51.046;3.732;2023-04-06T09:30:26;8.90;99.90
23073;DHT22;67971;51.046;3.732;2023-04-06T09:32:56;8.80;99.90
23073;DHT22;67971;51.046;3.732;2023-04-06T09:35:23;8.90;99.90
23073;DHT22;67971;51.046;3.732;2023-04-06T09:37:50;8.90;99.90
23073;DHT22;67971;51.046;3.732;2023-04-06T09:40:17;8.70;99.90
23073;DHT22;67971;51.046;3.732;2023-04-06T09:42:48;8.80;99.90
23073;DHT22;67971;51.046;3.732;2023-04-06T09:45:17;8.80;99.90
23073;DHT22;67971;51.046;3.732;2023-04-06T09:47:44;8.80;99.90
23073;DHT22;67971;51.046;3.732;2023-04-06T09:50:12;8.90;99.90
23073;DHT22;67971;51.046;3.732;2023-04-06T09:52:47;8.80;99.90
23073;DHT22;67971;51.046;3.732;2023-04-06T09:55:34;8.80;99.90
23073;DHT22;67971;51.046;3.732;2023-04-06T09:58:09;8.70;99.90
23073;DHT22;67971;51.046;3.732;2023-04-06T10:00:51;8.80;99.90
23073;DHT22;67971;51.046;3.732;2023-04-06T10:06:11;8.90;99.90
23073;DHT22;67971;51.046;3.732;2023-04-06T10:08:39;8.90;99.90
23073;DHT22;67971;51.046;3.732;2023-04-06T10:11:11;9.00;99.90
23073;DHT22;67971;51.046;3.732;2023-04-06T10:13:37;9.00;99.90
23073;DHT22;67971;51.046;3.732;2023-04-06T10:16:04;9.00;99.90
23073;DHT22;67971;51.046;3.732;2023-04-06T10:18:30;9.00;99.90
23073;DHT22;67971;51.046;3.732;2023-04-06T10:21:10;9.10;99.90
23073;DHT22;67971;51.046;3.732;2023-04-06T10:23:40;9.00;99.90
23073;DHT22;67971;51.046;3.732;2023-04-06T10:26:16;9.20;99.90
23073;DHT22;67971;51.046;3.732;2023-04-06T10:28:46;9.20;99.90
23073;DHT22;67971;51.046;3.732;2023-04-06T10:31:12;9.10;99.90
23073;DHT22;67971;51.046;3.732;2023-04-06T10:33:38;9.10;99.90
23073;DHT22;67971;51.046;3.732;2023-04-06T10:36:13;9.10;99.90
23073;DHT22;67971;51.046;3.732;2023-04-06T10:38:41;9.10;99.90
23073;DHT22;67971;51.046;3.732;2023-04-06T10:41:11;9.10;99.90
23073;DHT22;67971;51.046;3.732;2023-04-06T10:43:38;9.10;99.90
23073;DHT22;67971;51.046;3.732;2023-04-06T10:46:06;9.00;99.90
23073;DHT22;67971;51.046;3.732;2023-04-06T10:48:43;9.00;99.90
23073;DHT22;67971;51.046;3.732;2023-04-06T10:51:12;9.00;99.90
23073;DHT22;67971;51.046;3.732;2023-04-06T10:53:38;9.10;99.90
23073;DHT22;67971;51.046;3.732;2023-04-06T10:56:10;9.10;99.90
23073;DHT22;67971;51.046;3.732;2023-04-06T10:58:37;9.20;99.90
23073;DHT22;67971;51.046;3.732;2023-04-06T11:01:03;9.40;99.90
23073;DHT22;67971;51.046;3.732;2023-04-06T11:03:29;9.30;99.90
23073;DHT22;67971;51.046;3.732;2023-04-06T11:05:55;9.30;99.90
23073;DHT22;67971;51.046;3.732;2023-04-06T11:08:32;9.40;99.90
23073;DHT22;67971;51.046;3.732;2023-04-06T11:11:12;9.50;99.90
23073;DHT22;67971;51.046;3.732;2023-04-06T11:13:53;9.60;99.90
23073;DHT22;67971;51.046;3.732;2023-04-06T11:16:24;9.50;99.90
23073;DHT22;67971;51.046;3.732;2023-04-06T11:19:00;9.50;99.90
23073;DHT22;67971;51.046;3.732;2023-04-06T11:21:44;9.50;99.90
23073;DHT22;67971;51.046;3.732;2023-04-06T11:24:22;9.50;99.90
23073;DHT22;67971;51.046;3.732;2023-04-06T11:26:55;9.50;99.90
23073;DHT22;67971;51.046;3.732;2023-04-06T11:29:24;9.50;99.90
23073;DHT22;67971;51.046;3.732;2023-04-06T11:32:04;9.60;99.90
23073;DHT22;67971;51.046;3.732;2023-04-06T11:34:32;9.70;99.90
23073;DHT22;67971;51.046;3.732;2023-04-06T11:36:59;9.60;99.90
23073;DHT22;67971;51.046;3.732;2023-04-06T11:39:27;9.50;99.90
23073;DHT22;67971;51.046;3.732;2023-04-06T11:41:55;9.40;99.90
23073;DHT22;67971;51.046;3.732;2023-04-06T11:46:57;9.40;99.90
23073;DHT22;67971;51.046;3.732;2023-04-06T11:49:30;9.40;99.90
23073;DHT22;67971;51.046;3.732;2023-04-06T11:51:57;9.40;99.90
23073;DHT22;67971;51.046;3.732;2023-04-06T11:54:36;9.40;99.90
23073;DHT22;67971;51.046;3.732;2023-04-06T11:57:06;9.40;99.90
23073;DHT22;67971;51.046;3.732;2023-04-06T11:59:32;9.50;99.90
23073;DHT22;67971;51.046;3.732;2023-04-06T12:01:58;9.50;99.90
23073;DHT22;67971;51.046;3.732;2023-04-06T12:04:24;9.50;99.90
23073;DHT22;67971;51.046;3.732;2023-04-06T12:06:49;9.50;99.90
23073;DHT22;67971;51.046;3.732;2023-04-06T12:09:16;9.50;99.90
23073;DHT22;67971;51.046;3.732;2023-04-06T12:11:43;9.50;99.90
23073;DHT22;67971;51.046;3.732;2023-04-06T12:14:08;9.60;99.90
23073;DHT22;67971;51.046;3.732;2023-04-06T12:16:35;9.60;99.90
23073;DHT22;67971;51.046;3.732;2023-04-06T12:19:01;9.60;99.90
23073;DHT22;67971;51.046;3.732;2023-04-06T12:21:27;9.70;99.90
23073;DHT22;67971;51.046;3.732;2023-04-06T12:23:54;9.70;99.90
23073;DHT22;67971;51.046;3.732;2023-04-06T12:26:20;9.80;99.90
23073;DHT22;67971;51.046;3.732;2023-04-06T12:28:46;9.80;99.90
23073;DHT22;67971;51.046;3.732;2023-04-06T12:31:20;9.80;99.90
23073;DHT22;67971;51.046;3.732;2023-04-06T12:33:47;9.70;99.90
23073;DHT22;67971;51.046;3.732;2023-04-06T12:36:18;9.70;99.90
23073;DHT22;67971;51.046;3.732;2023-04-06T12:38:46;9.80;99.90
23073;DHT22;67971;51.046;3.732;2023-04-06T12:41:12;9.80;99.90
23073;DHT22;67971;51.046;3.732;2023-04-06T12:43:42;9.80;99.90
23073;DHT22;67971;51.046;3.732;2023-04-06T12:46:08;9.90;99.90
23073;DHT22;67971;51.046;3.732;2023-04-06T12:48:34;9.90;99.90
23073;DHT22;67971;51.046;3.732;2023-04-06T12:51:05;9.90;99.90
23073;DHT22;67971;51.046;3.732;2023-04-06T12:53:32;9.90;99.90
23073;DHT22;67971;51.046;3.732;2023-04-06T12:55:58;10.00;99.90
23073;DHT22;67971;51.046;3.732;2023-04-06T12:58:25;10.00;99.90
23073;DHT22;67971;51.046;3.732;2023-04-06T13:00:54;9.90;99.90
23073;DHT22;67971;51.046;3.732;2023-04-06T13:03:21;10.10;99.90
23073;DHT22;67971;51.046;3.732;2023-04-06T13:05:49;10.20;99.90
23073;DHT22;67971;51.046;3.732;2023-04-06T13:08:16;10.20;99.90
23073;DHT22;67971;51.046;3.732;2023-04-06T13:10:47;10.30;99.90
23073;DHT22;67971;51.046;3.732;2023-04-06T13:13:17;10.30;99.90
23073;DHT22;67971;51.046;3.732;2023-04-06T13:15:44;10.20;99.90
23073;DHT22;67971;51.046;3.732;2023-04-06T13:18:10;10.20;99.90
23073;DHT22;67971;51.046;3.732;2023-04-06T13:20:36;10.20;99.90
23073;DHT22;67971;51.046;3.732;2023-04-06T13:23:02;10.20;99.90
23073;DHT22;67971;51.046;3.732;2023-04-06T13:25:28;10.20;99.90
23073;DHT22;67971;51.046;3.732;2023-04-06T13:27:54;10.30;99.90
23073;DHT22;67971;51.046;3.732;2023-04-06T13:30:25;10.40;99.90
23073;DHT22;67971;51.046;3.732;2023-04-06T13:32:51;10.60;99.90
23073;DHT22;67971;51.046;3.732;2023-04-06T13:35:17;10.70;99.90
23073;DHT22;67971;51.046;3.732;2023-04-06T13:37:43;10.70;99.90
23073;DHT22;67971;51.046;3.732;2023-04-06T13:40:09;10.90;99.90
23073;DHT22;67971;51.046;3.732;2023-04-06T13:42:35;10.90;99.90
23073;DHT22;67971;51.046;3.732;2023-04-06T13:45:02;11.00;99.90
23073;DHT22;67971;51.046;3.732;2023-04-06T13:47:27;11.00;99.90
23073;DHT22;67971;51.046;3.732;2023-04-06T13:49:54;11.00;99.90
23073;DHT22;67971;51.046;3.732;2023-04-06T13:52:20;10.90;99.90
23073;DHT22;67971;51.046;3.732;2023-04-06T13:54:46;10.90;99.90
23073;DHT22;67971;51.046;3.732;2023-04-06T13:57:12;11.00;99.90
23073;DHT22;67971;51.046;3.732;2023-04-06T13:59:38;11.00;99.90
23073;DHT22;67971;51.046;3.732;2023-04-06T14:02:06;11.10;99.90
23073;DHT22;67971;51.046;3.732;2023-04-06T14:04:32;11.10;99.90
23073;DHT22;67971;51.046;3.732;2023-04-06T14:06:59;11.10;99.90
23073;DHT22;67971;51.046;3.732;2023-04-06T14:09:25;11.10;99.90
23073;DHT22;67971;51.046;3.732;2023-04-06T14:11:51;11.10;99.90
23073;DHT22;67971;51.046;3.732;2023-04-06T14:14:17;11.10;99.90
23073;DHT22;67971;51.046;3.732;2023-04-06T14:16:43;11.10;99.90
23073;DHT22;67971;51.046;3.732;2023-04-06T14:19:13;11.10;99.90
23073;DHT22;67971;51.046;3.732;2023-04-06T14:21:39;11.30;99.90
23073;DHT22;67971;51.046;3.732;2023-04-06T14:24:08;11.40;99.90
23073;DHT22;67971;51.046;3.732;2023-04-06T14:26:38;11.50;99.90
23073;DHT22;67971;51.046;3.732;2023-04-06T14:29:04;11.50;99.90
23073;DHT22;67971;51.046;3.732;2023-04-06T14:31:31;11.50;99.90
23073;DHT22;67971;51.046;3.732;2023-04-06T14:33:57;11.60;99.90
23073;DHT22;67971;51.046;3.732;2023-04-06T14:36:24;11.60;99.90
23073;DHT22;67971;51.046;3.732;2023-04-06T14:38:52;11.60;99.90
23073;DHT22;67971;51.046;3.732;2023-04-06T14:41:23;11.80;99.90
23073;DHT22;67971;51.046;3.732;2023-04-06T14:43:49;11.90;99.90
23073;DHT22;67971;51.046;3.732;2023-04-06T14:46:16;11.90;99.90
23073;DHT22;67971;51.046;3.732;2023-04-06T14:48:42;12.10;99.90
23073;DHT22;67971;51.046;3.732;2023-04-06T14:51:07;12.20;99.90
23073;DHT22;67971;51.046;3.732;2023-04-06T14:53:33;12.30;99.90
23073;DHT22;67971;51.046;3.732;2023-04-06T14:55:59;12.40;99.90
23073;DHT22;67971;51.046;3.732;2023-04-06T14:58:26;12.40;99.90
23073;DHT22;67971;51.046;3.732;2023-04-06T15:00:58;12.50;99.90
23073;DHT22;67971;51.046;3.732;2023-04-06T15:03:25;12.60;99.90
23073;DHT22;67971;51.046;3.732;2023-04-06T15:05:55;12.50;99.90
23073;DHT22;67971;51.046;3.732;2023-04-06T15:08:22;12.60;99.90
23073;DHT22;67971;51.046;3.732;2023-04-06T15:10:49;12.70;99.90
23073;DHT22;67971;51.046;3.732;2023-04-06T15:13:15;12.80;99.90
23073;DHT22;67971;51.046;3.732;2023-04-06T15:15:42;12.80;99.90
23073;DHT22;67971;51.046;3.732;2023-04-06T15:18:08;12.80;99.90
23073;DHT22;67971;51.046;3.732;2023-04-06T15:20:34;12.80;99.90
23073;DHT22;67971;51.046;3.732;2023-04-06T15:23:01;12.80;99.90
23073;DHT22;67971;51.046;3.732;2023-04-06T15:25:28;12.90;99.90
23073;DHT22;67971;51.046;3.732;2023-04-06T15:27:54;13.00;99.90
23073;DHT22;67971;51.046;3.732;2023-04-06T15:30:20;13.20;99.90
23073;DHT22;67971;51.046;3.732;2023-04-06T15:32:58;13.20;99.90
23073;DHT22;67971;51.046;3.732;2023-04-06T15:35:26;13.30;99.90
23073;DHT22;67971;51.046;3.732;2023-04-06T15:37:52;13.50;99.90
23073;DHT22;67971;51.046;3.732;2023-04-06T15:40:18;13.60;99.90
23073;DHT22;67971;51.046;3.732;2023-04-06T15:42:43;13.60;99.90